createdAt,value
2022-10-09T00:03:21.457Z,6.13
2022-10-09T00:05:53.985Z,5.90
2022-10-09T00:08:22.305Z,6.53
2022-10-09T00:10:51.057Z,5.53
2022-10-09T00:13:19.590Z,5.93
2022-10-09T00:15:50.286Z,6.13
2022-10-09T00:18:19.769Z,6.10
2022-10-09T00:20:49.024Z,5.90
2022-10-09T00:23:18.987Z,5.80
2022-10-09T00:26:01.746Z,5.60
2022-10-09T00:28:38.509Z,6.20
2022-10-09T00:31:09.732Z,5.20
2022-10-09T00:33:39.135Z,5.80
2022-10-09T00:36:19.018Z,5.13
2022-10-09T00:41:44.194Z,6.87
2022-10-09T00:44:45.918Z,5.60
2022-10-09T00:47:29.045Z,6.13
2022-10-09T00:50:17.646Z,6.27
2022-10-09T00:53:06.405Z,7.27
2022-10-09T00:55:38.744Z,6.70
2022-10-09T00:58:10.543Z,7.13
2022-10-09T01:00:39.524Z,7.33
2022-10-09T01:03:12.839Z,7.47
2022-10-09T01:09:07.239Z,7.27
2022-10-09T01:12:01.986Z,5.83
2022-10-09T01:14:48.020Z,7.00
2022-10-09T01:17:31.125Z,7.27
2022-10-09T01:20:30.365Z,7.50
2022-10-09T01:23:21.470Z,7.13
2022-10-09T01:26:13.030Z,6.97
2022-10-09T01:29:02.333Z,6.60
2022-10-09T01:34:06.253Z,7.93
2022-10-09T01:36:39.314Z,8.70
2022-10-09T01:39:09.675Z,8.30
2022-10-09T01:41:37.630Z,8.40
2022-10-09T01:44:15.046Z,7.47
2022-10-09T01:46:45.658Z,7.90
2022-10-09T01:49:52.943Z,7.93
2022-10-09T01:52:43.410Z,8.80
2022-10-09T01:55:38.781Z,8.47
2022-10-09T01:58:26.869Z,8.67
2022-10-09T02:01:49.103Z,8.27
2022-10-09T02:04:18.866Z,9.27
2022-10-09T02:09:33.172Z,10.03
2022-10-09T02:14:45.723Z,9.13
2022-10-09T02:17:19.159Z,10.43
2022-10-09T02:20:02.634Z,10.90
2022-10-09T02:22:34.865Z,10.80
2022-10-09T02:25:08.004Z,10.40
2022-10-09T02:27:37.684Z,10.80
2022-10-09T02:30:12.661Z,11.70
2022-10-09T02:32:41.708Z,10.87
2022-10-09T02:35:11.634Z,10.33
2022-10-09T02:37:43.582Z,11.20
2022-10-09T02:40:11.553Z,10.90
2022-10-09T02:42:40.061Z,10.17
2022-10-09T02:45:09.861Z,20.67
2022-10-09T02:47:37.521Z,10.70
2022-10-09T02:50:07.125Z,11.67
2022-10-09T02:52:36.591Z,11.07
2022-10-09T02:57:58.647Z,10.50
2022-10-09T03:00:27.659Z,10.63
2022-10-09T03:02:59.792Z,11.30
2022-10-09T03:05:39.412Z,11.03
2022-10-09T03:08:17.753Z,10.97
2022-10-09T03:10:48.884Z,10.90
2022-10-09T03:13:17.089Z,10.80
2022-10-09T03:15:48.130Z,11.43
2022-10-09T03:18:24.502Z,10.90
2022-10-09T03:20:53.353Z,11.57
2022-10-09T03:23:27.725Z,11.07
2022-10-09T03:26:05.137Z,13.00
2022-10-09T03:28:36.414Z,11.30
2022-10-09T03:31:04.681Z,10.80
2022-10-09T03:33:33.021Z,11.43
2022-10-09T03:36:02.555Z,11.37
2022-10-09T03:38:41.611Z,11.10
2022-10-09T03:41:11.613Z,12.23
2022-10-09T03:43:39.492Z,11.37
2022-10-09T03:46:11.265Z,11.43
2022-10-09T03:48:38.851Z,10.80
2022-10-09T03:51:08.096Z,11.30
2022-10-09T03:53:37.006Z,11.80
2022-10-09T03:56:08.359Z,11.50
2022-10-09T03:58:41.413Z,11.53
2022-10-09T04:01:09.315Z,11.90
2022-10-09T04:03:41.173Z,11.67
2022-10-09T04:06:11.478Z,11.87
2022-10-09T04:08:41.586Z,11.60
2022-10-09T04:11:20.450Z,11.73
2022-10-09T04:13:49.130Z,11.73
2022-10-09T04:16:19.871Z,11.60
2022-10-09T04:18:49.655Z,11.37
2022-10-09T04:21:23.749Z,11.20
2022-10-09T04:23:54.313Z,11.27
2022-10-09T04:26:22.881Z,11.50
2022-10-09T04:28:51.308Z,10.50
2022-10-09T04:31:18.362Z,10.87
2022-10-09T04:36:28.098Z,11.23
2022-10-09T04:38:55.107Z,23.00
2022-10-09T04:41:23.683Z,11.10
2022-10-09T04:43:57.842Z,12.07
2022-10-09T04:46:25.322Z,12.33
2022-10-09T04:48:58.382Z,12.27
2022-10-09T04:51:26.287Z,12.37
2022-10-09T04:53:59.753Z,11.67
2022-10-09T04:56:28.082Z,12.23
2022-10-09T04:58:55.648Z,11.13
2022-10-09T05:01:25.659Z,11.57
2022-10-09T05:03:53.615Z,11.77
2022-10-09T05:06:23.387Z,12.23
2022-10-09T05:08:54.600Z,12.20
2022-10-09T05:11:25.379Z,12.67
2022-10-09T05:13:59.484Z,12.57
2022-10-09T05:16:29.234Z,12.60
2022-10-09T05:18:58.859Z,13.23
2022-10-09T05:21:28.522Z,13.00
2022-10-09T05:23:56.424Z,12.87
2022-10-09T05:26:26.322Z,13.73
2022-10-09T05:28:59.978Z,13.17
2022-10-09T05:31:29.471Z,13.47
2022-10-09T05:34:00.453Z,14.30
2022-10-09T05:36:28.014Z,13.67
2022-10-09T05:38:57.286Z,14.20
2022-10-09T05:41:27.776Z,13.67
2022-10-09T05:44:00.839Z,16.10
2022-10-09T05:46:31.440Z,15.17
2022-10-09T05:49:06.037Z,15.43
2022-10-09T05:51:36.465Z,14.53
2022-10-09T05:54:05.342Z,13.50
2022-10-09T05:56:38.735Z,13.40
2022-10-09T05:59:11.933Z,14.53
2022-10-09T06:01:42.693Z,13.23
2022-10-09T06:04:20.737Z,14.23
2022-10-09T06:07:11.727Z,13.23
2022-10-09T06:12:23.559Z,14.63
2022-10-09T06:14:57.239Z,14.30
2022-10-09T06:17:27.046Z,13.83
2022-10-09T06:20:00.117Z,13.73
2022-10-09T06:22:27.990Z,14.10
2022-10-09T06:24:59.155Z,13.80
2022-10-09T06:27:26.913Z,13.63
2022-10-09T06:29:56.715Z,13.53
2022-10-09T06:32:25.862Z,12.10
2022-10-09T06:34:55.490Z,13.40
2022-10-09T06:37:23.342Z,13.33
2022-10-09T06:39:50.844Z,12.27
2022-10-09T06:42:18.723Z,12.23
2022-10-09T06:44:46.405Z,14.27
2022-10-09T06:47:13.622Z,12.67
2022-10-09T06:49:40.942Z,13.20
2022-10-09T06:52:07.981Z,13.13
2022-10-09T06:54:36.202Z,12.40
2022-10-09T06:57:03.403Z,12.47
2022-10-09T06:59:30.699Z,13.30
2022-10-09T07:01:58.238Z,11.90
2022-10-09T07:04:25.635Z,11.63
2022-10-09T07:06:53.205Z,12.17
2022-10-09T07:09:20.567Z,12.70
2022-10-09T07:11:50.917Z,11.97
2022-10-09T07:14:18.279Z,11.93
2022-10-09T07:16:47.559Z,11.93
2022-10-09T07:19:16.305Z,10.93
2022-10-09T07:21:59.066Z,10.60
2022-10-09T07:24:32.697Z,9.83
2022-10-09T07:27:02.282Z,9.27
2022-10-09T07:29:31.223Z,9.33
2022-10-09T07:32:00.988Z,8.90
2022-10-09T07:34:36.835Z,8.50
2022-10-09T07:37:04.373Z,8.67
2022-10-09T07:39:31.495Z,8.43
2022-10-09T07:41:58.708Z,8.60
2022-10-09T07:44:26.261Z,8.20
2022-10-09T07:46:56.843Z,7.72
2022-10-09T07:49:33.833Z,7.60
2022-10-09T07:52:01.783Z,7.50
2022-10-09T07:54:40.894Z,7.82
2022-10-09T07:57:13.427Z,7.45
2022-10-09T07:59:42.057Z,7.85
2022-10-09T08:02:15.213Z,7.23
2022-10-09T08:41:39.701Z,8.40
2022-10-09T08:44:11.263Z,8.20
2022-10-09T08:46:59.496Z,8.47
2022-10-09T08:49:58.643Z,8.53
2022-10-09T08:52:52.663Z,8.40
2022-10-09T08:55:27.562Z,8.10
2022-10-09T08:57:59.728Z,7.70
2022-10-09T09:00:36.486Z,8.33
2022-10-09T09:03:26.043Z,7.80
2022-10-09T09:06:08.585Z,7.47
2022-10-09T09:09:14.393Z,6.73
2022-10-09T09:12:31.011Z,7.30
2022-10-09T09:15:04.894Z,6.03
2022-10-09T09:17:58.939Z,6.27
2022-10-09T09:20:48.981Z,6.33
2022-10-09T09:23:17.889Z,6.93
2022-10-09T09:25:56.595Z,5.77
2022-10-09T09:28:38.125Z,5.73
2022-10-09T09:31:44.127Z,5.83
2022-10-09T09:35:05.560Z,5.67
2022-10-09T09:37:41.178Z,6.10
2022-10-09T09:40:38.045Z,6.40
2022-10-09T09:43:24.755Z,5.40
2022-10-09T09:45:58.595Z,5.70
2022-10-09T09:48:51.390Z,5.27
2022-10-09T09:51:39.618Z,4.30
2022-10-09T09:54:16.248Z,4.80
2022-10-09T09:59:39.799Z,3.93
2022-10-09T10:02:36.678Z,4.43
2022-10-09T10:05:22.790Z,4.50
2022-10-09T10:07:51.920Z,4.50
2022-10-09T10:10:25.397Z,4.77
2022-10-09T10:12:53.253Z,3.97
2022-10-09T10:15:37.680Z,4.67
2022-10-09T10:18:14.116Z,4.10
2022-10-09T10:21:03.801Z,5.27
2022-10-09T10:23:42.372Z,4.77
2022-10-09T10:26:50.981Z,4.00
2022-10-09T10:29:26.321Z,3.90
2022-10-09T10:32:02.363Z,3.60
2022-10-09T10:34:44.822Z,4.27
2022-10-09T10:37:29.686Z,4.13
2022-10-09T10:40:11.579Z,3.37
2022-10-09T10:42:57.426Z,3.60
2022-10-09T10:46:11.565Z,3.80
2022-10-09T10:48:43.098Z,4.10
2022-10-09T10:52:19.850Z,3.60
2022-10-09T10:54:51.647Z,3.60
2022-10-09T10:58:05.261Z,3.80
2022-10-09T11:00:49.974Z,3.10
2022-10-09T11:03:26.544Z,3.33
2022-10-09T11:06:03.018Z,3.37
2022-10-09T11:08:35.973Z,2.93
2022-10-09T11:11:14.537Z,3.03
2022-10-09T11:14:01.913Z,3.00
2022-10-09T11:17:15.737Z,2.63
2022-10-09T11:20:29.155Z,2.73
2022-10-09T11:23:07.333Z,2.80
2022-10-09T11:26:32.272Z,2.53
2022-10-09T11:29:22.679Z,2.83
2022-10-09T11:32:00.363Z,2.83
2022-10-09T11:37:32.737Z,2.43
2022-10-09T11:40:23.674Z,3.00
2022-10-09T11:43:09.665Z,2.57
2022-10-09T11:46:13.597Z,2.80
2022-10-09T11:48:49.376Z,2.87
2022-10-09T11:52:19.354Z,3.10
2022-10-09T11:54:47.190Z,3.20
2022-10-09T11:57:15.615Z,2.97
2022-10-09T11:59:42.908Z,2.77
2022-10-09T12:02:32.668Z,3.03
2022-10-09T12:05:01.719Z,3.10
2022-10-09T12:07:36.782Z,2.67
2022-10-09T12:10:10.875Z,2.73
2022-10-09T12:13:17.890Z,2.83
2022-10-09T12:16:21.416Z,3.27
2022-10-09T12:19:03.727Z,3.30
2022-10-09T12:22:04.129Z,3.10
2022-10-09T12:24:56.660Z,3.03
2022-10-09T12:27:40.726Z,3.17
2022-10-09T12:39:45.348Z,2.73
2022-10-09T12:42:33.201Z,2.37
2022-10-09T12:45:01.031Z,2.90
2022-10-09T12:47:35.257Z,2.10
2022-10-09T12:50:19.784Z,2.23
2022-10-09T12:53:00.961Z,2.30
2022-10-09T12:55:52.249Z,2.70
2022-10-09T12:58:36.297Z,2.00
2022-10-09T13:01:11.193Z,2.73
2022-10-09T13:03:46.956Z,2.03
2022-10-09T13:06:49.331Z,2.20
2022-10-09T13:12:29.408Z,2.00
2022-10-09T13:15:02.679Z,2.33
2022-10-09T13:18:13.729Z,1.80
2022-10-09T13:20:43.788Z,1.60
2022-10-09T13:23:30.424Z,1.77
2022-10-09T13:26:03.633Z,1.70
2022-10-09T13:28:34.987Z,1.53
2022-10-09T13:31:10.498Z,1.80
2022-10-09T13:33:37.551Z,1.80
2022-10-09T13:36:04.546Z,1.83
2022-10-09T13:38:39.021Z,2.10
2022-10-09T13:41:06.034Z,1.80
2022-10-09T13:43:33.322Z,1.80
2022-10-09T13:46:00.341Z,1.90
2022-10-09T13:48:29.767Z,1.60
2022-10-09T13:50:59.310Z,1.70
2022-10-09T13:53:27.752Z,1.60
2022-10-09T13:56:00.015Z,1.70
2022-10-09T13:58:28.543Z,1.60
2022-10-09T14:00:56.342Z,1.90
2022-10-09T14:03:23.253Z,1.73
2022-10-09T14:05:50.183Z,1.30
2022-10-09T14:08:17.032Z,1.70
2022-10-09T14:10:44.739Z,1.47
2022-10-09T14:13:11.744Z,1.77
2022-10-09T14:15:40.238Z,1.50
2022-10-09T14:18:08.340Z,1.70
2022-10-09T14:20:36.021Z,1.80
2022-10-09T14:23:03.434Z,1.70
2022-10-09T14:25:30.614Z,1.63
2022-10-09T14:27:57.546Z,1.80
2022-10-09T14:30:24.593Z,1.70
2022-10-09T14:32:51.752Z,1.50
2022-10-09T14:35:21.590Z,1.40
2022-10-09T14:37:48.703Z,1.20
2022-10-09T14:40:16.060Z,1.60
2022-10-09T14:42:43.313Z,2.00
2022-10-09T14:45:11.010Z,1.60
2022-10-09T14:47:38.115Z,1.93
2022-10-09T14:50:06.095Z,1.57
2022-10-09T14:52:33.167Z,1.53
2022-10-09T14:55:00.264Z,1.67
2022-10-09T14:57:34.303Z,1.50
2022-10-09T15:00:04.299Z,1.60
2022-10-09T15:02:33.196Z,1.70
2022-10-09T15:05:04.147Z,1.83
2022-10-09T15:07:32.369Z,1.80
2022-10-09T15:10:00.040Z,1.67
2022-10-09T15:12:27.841Z,1.80
2022-10-09T15:14:55.118Z,1.60
2022-10-09T15:17:31.605Z,1.73
2022-10-09T15:20:07.910Z,1.50
2022-10-09T15:25:33.080Z,1.63
2022-10-09T15:28:10.326Z,1.67
2022-10-09T15:30:45.551Z,1.90
2022-10-09T15:33:14.631Z,1.63
2022-10-09T15:35:48.381Z,1.70
2022-10-09T15:38:17.793Z,1.67
2022-10-09T15:40:50.561Z,1.77
2022-10-09T15:43:31.921Z,1.90
2022-10-09T15:46:15.364Z,1.70
2022-10-09T15:48:46.413Z,1.90
2022-10-09T15:51:25.182Z,1.90
2022-10-09T15:54:00.582Z,1.80
2022-10-09T15:56:30.073Z,1.80
2022-10-09T15:59:04.063Z,2.00
2022-10-09T16:01:41.062Z,1.90
2022-10-09T16:04:09.897Z,2.10
2022-10-09T16:06:38.075Z,2.10
2022-10-09T16:09:11.308Z,1.97
2022-10-09T16:11:40.809Z,2.00
2022-10-09T16:14:10.621Z,1.40
2022-10-09T16:16:38.436Z,1.57
2022-10-09T16:19:09.617Z,2.00
2022-10-09T16:21:37.170Z,1.90
2022-10-09T16:24:04.525Z,2.00
2022-10-09T16:26:50.001Z,1.67
2022-10-09T16:29:18.372Z,1.80
2022-10-09T16:31:54.393Z,1.80
2022-10-09T16:34:29.553Z,1.57
2022-10-09T16:37:06.387Z,1.93
2022-10-09T16:39:35.594Z,2.20
2022-10-09T16:42:04.592Z,2.47
2022-10-09T16:44:31.855Z,1.90
2022-10-09T16:46:59.021Z,2.13
2022-10-09T17:02:42.857Z,1.70
2022-10-09T17:05:10.370Z,2.07
2022-10-09T17:07:37.840Z,2.70
2022-10-09T17:10:07.143Z,1.93
2022-10-09T17:15:58.761Z,2.17
2022-10-09T17:18:30.706Z,2.03
2022-10-09T17:21:01.385Z,2.00
2022-10-09T17:23:37.711Z,2.13
2022-10-09T17:26:24.184Z,1.93
2022-10-09T17:31:48.024Z,2.20
2022-10-09T17:34:18.974Z,2.13
2022-10-09T17:36:50.112Z,1.80
2022-10-09T17:39:19.922Z,1.90
2022-10-09T17:41:48.934Z,2.00
2022-10-09T17:44:17.201Z,2.50
2022-10-09T17:46:44.648Z,2.20
2022-10-09T17:49:11.725Z,1.70
2022-10-09T17:51:40.255Z,2.37
2022-10-09T17:54:13.118Z,2.00
2022-10-09T17:56:40.848Z,2.10
2022-10-09T17:59:08.825Z,2.07
2022-10-09T18:01:36.190Z,2.17
2022-10-09T18:04:03.939Z,1.90
2022-10-09T18:09:14.585Z,2.30
2022-10-09T18:11:44.114Z,2.20
2022-10-09T18:19:42.671Z,2.20
2022-10-09T18:22:11.387Z,2.10
2022-10-09T18:24:40.875Z,2.30
2022-10-09T18:27:09.942Z,2.23
2022-10-09T18:29:50.516Z,2.10
2022-10-09T18:37:46.128Z,2.43
2022-10-09T18:40:14.795Z,1.97
2022-10-09T18:42:52.039Z,2.30
2022-10-09T18:45:25.669Z,2.40
2022-10-09T18:48:00.446Z,2.27
2022-10-09T18:50:34.068Z,2.27
2022-10-09T18:53:12.706Z,2.33
2022-10-09T18:55:47.580Z,2.27
2022-10-09T18:58:26.353Z,2.00
2022-10-09T19:01:07.606Z,2.10
2022-10-09T19:03:46.056Z,2.30
2022-10-09T19:06:24.121Z,2.20
2022-10-09T19:08:54.020Z,2.63
2022-10-09T19:14:04.814Z,2.33
2022-10-09T19:16:34.624Z,2.37
2022-10-09T19:19:05.232Z,2.27
2022-10-09T19:21:36.104Z,2.40
2022-10-09T19:24:06.728Z,2.67
2022-10-09T19:26:36.363Z,2.70
2022-10-09T19:31:47.223Z,2.70
2022-10-09T19:55:15.801Z,3.00
2022-10-09T19:57:43.113Z,3.23
2022-10-09T20:02:54.090Z,3.27
2022-10-09T20:05:23.629Z,2.83
2022-10-09T20:07:52.461Z,3.40
2022-10-09T20:16:15.157Z,3.53
2022-10-09T20:18:46.834Z,3.20
2022-10-09T20:21:28.863Z,4.27
2022-10-09T20:24:02.756Z,3.87
2022-10-09T20:26:34.086Z,3.57
2022-10-09T20:29:01.859Z,3.93
2022-10-09T20:31:30.903Z,4.27
2022-10-09T20:33:59.484Z,3.70
2022-10-09T20:36:31.368Z,4.17
2022-10-09T20:39:00.453Z,3.83
2022-10-09T20:41:29.495Z,3.40
2022-10-09T20:43:58.360Z,3.40
2022-10-09T20:46:26.814Z,3.23
2022-10-09T20:48:57.666Z,3.20
2022-10-09T20:51:27.236Z,3.00
2022-10-09T20:56:31.672Z,3.40
2022-10-09T20:59:00.003Z,3.60
2022-10-09T21:01:28.437Z,3.60
2022-10-09T21:03:59.375Z,3.10
2022-10-09T21:06:26.853Z,3.20
2022-10-09T21:08:53.732Z,3.40
2022-10-09T21:11:20.869Z,2.87
2022-10-09T21:13:48.550Z,3.60
2022-10-09T21:16:19.567Z,3.77
2022-10-09T21:18:47.482Z,3.63
2022-10-09T21:21:17.025Z,3.53
2022-10-09T21:23:45.220Z,3.60
2022-10-09T21:26:17.325Z,4.03
2022-10-09T21:28:45.013Z,3.53
2022-10-09T21:31:24.362Z,3.90
2022-10-09T21:33:51.249Z,3.87
2022-10-09T21:36:25.690Z,3.77
2022-10-09T21:38:52.743Z,4.10
2022-10-09T21:41:19.604Z,3.87
2022-10-09T21:43:46.541Z,4.30
2022-10-09T21:46:13.464Z,4.20
2022-10-09T21:48:40.639Z,3.93
2022-10-09T21:51:08.010Z,3.97
2022-10-09T21:53:35.305Z,4.17
2022-10-09T21:56:06.526Z,4.83
2022-10-09T21:58:33.650Z,4.97
2022-10-09T22:01:02.289Z,4.17
2022-10-09T22:03:32.886Z,4.17
2022-10-09T22:06:20.371Z,3.90
2022-10-09T22:08:48.267Z,3.93
2022-10-09T22:11:16.300Z,4.03
2022-10-09T22:13:43.820Z,4.07
2022-10-09T22:16:13.781Z,4.47
2022-10-09T22:18:41.314Z,3.90
2022-10-09T22:21:14.253Z,4.10
2022-10-09T22:23:42.331Z,3.97
2022-10-09T22:26:12.780Z,3.83
2022-10-09T22:28:40.324Z,4.20
2022-10-09T22:31:12.426Z,4.30
2022-10-09T22:33:39.547Z,3.97
2022-10-09T22:36:07.909Z,4.00
2022-10-09T22:38:35.374Z,4.50
2022-10-09T22:41:14.371Z,4.07
2022-10-09T22:43:42.431Z,4.53
2022-10-09T22:46:18.170Z,4.37
2022-10-09T22:48:45.254Z,3.83
2022-10-09T22:51:14.639Z,4.60
2022-10-09T22:53:42.482Z,4.53
2022-10-09T22:56:13.292Z,4.30
2022-10-09T22:58:40.462Z,4.37
2022-10-09T23:01:11.278Z,4.53
2022-10-09T23:03:38.328Z,4.40
2022-10-09T23:06:11.640Z,4.90
2022-10-09T23:08:47.449Z,4.60
2022-10-09T23:11:16.284Z,4.17
2022-10-09T23:13:44.344Z,4.70
2022-10-09T23:16:12.969Z,4.70
2022-10-09T23:18:41.631Z,4.20
2022-10-09T23:21:14.931Z,4.40
2022-10-09T23:23:45.776Z,4.33
2022-10-09T23:26:16.544Z,4.67
2022-10-09T23:28:49.728Z,4.60
2022-10-09T23:31:20.140Z,4.40
2022-10-09T23:33:47.873Z,4.50
2022-10-09T23:36:24.682Z,4.73
2022-10-09T23:38:52.818Z,4.80
2022-10-09T23:41:23.412Z,4.90
2022-10-09T23:44:22.344Z,5.10
2022-10-09T23:46:52.413Z,4.80
2022-10-09T23:49:19.844Z,4.57
2022-10-09T23:51:48.231Z,4.57
2022-10-09T23:54:16.471Z,5.03
2022-10-09T23:56:45.234Z,5.43
2022-10-09T23:59:12.734Z,4.67
